Reportes METAR Cercanos

 

LEMD - Madrid/Barajas, Spain
Distance from station: N 10km
Updated: 21/10/2018 15:30
Parcialmente nuboso
Parcialmente nuboso
 Viento del NE
Viento: NE 7 km/h
Temperatura: 22°C
Rocío: 14°C
Humedad: 61%
Barómetro: 1021 hPa
Clouds: Parcialmente nuboso
Visibility: 10 km
Cloud details: Poco nuboso 1524 m
Parcialmente nuboso 2134 m
2018/10/21 15:30 LEMD 211530Z 05004KT 360V110 9999 FEW050 SCT070 22/14 Q1021 NOSIG
LETO - Torrejon (usafb), Spain
Distance from station: NNE 13km
Updated: 21/10/2018 15:00
Parcialmente nuboso
Parcialmente nuboso
 Viento del NE
Viento: NE 9 km/h
Temperatura: 21°C
Rocío: 15°C
Humedad: 69%
Barómetro: 1021 hPa
Clouds: Parcialmente nuboso
Visibility: 10 km
Cloud details: Poco nuboso 1219 m
Parcialmente nuboso 2103 m
2018/10/21 15:00 LETO 211500Z 05005KT 020V080 9999 FEW040TCU SCT069 21/15 Q1021 NOSIG
 
LEGT - Madrid/Getafe (a, Spain
Distance from station: OSO 18km
Updated: 21/10/2018 15:00
Parcialmente nuboso
Parcialmente nuboso
 Viento del ENE
Viento: ENE 15 km/h
Temperatura: 21°C
Rocío: 14°C
Humedad: 64%
Barómetro: 1021 hPa
Clouds: Parcialmente nuboso
Visibility: 10 km
Cloud details: Poco nuboso 975 m
Parcialmente nuboso 1280 m
2018/10/21 15:00 LEGT 211500Z 06008KT 030V110 9999 FEW032 SCT042 21/14 Q1021
LEVS - Madrid/Cuatro Vi, Spain
Distance from station: O 20km
Updated: 21/10/2018 15:30
Parcialmente nuboso
Parcialmente nuboso
 Viento del ENE
Viento: ENE 11 km/h
Temperatura: 21°C
Rocío: 13°C
Humedad: 60%
Barómetro: 1021 hPa
Clouds: Parcialmente nuboso
Visibility: 10 km
Cloud details: Parcialmente nuboso 1006 m
2018/10/21 15:30 LEVS 211530Z 06006KT 020V110 9999 SCT033 21/13 Q1021
 
LECV - Madri-Colmenar, Spain
Distance from station: NNO 34km
Updated: 21/10/2018 15:00
Poco nuboso
Poco nuboso
 Viento del E
Viento: E 9 km/h
Temperatura: 20°C
Rocío: 12°C
Humedad: 60%
Barómetro: 1022 hPa
Clouds: Poco nuboso
Visibility: 10 km
Cloud details: Poco nuboso 1067 m
2018/10/21 15:00 LECV 211500Z 08005KT 040V130 9999 FEW035 20/12 Q1022